createdAt,value
2017-06-17T00:00:33.969Z,17.90
2017-06-17T00:03:06.157Z,17.90
2017-06-17T00:05:41.740Z,17.90
2017-06-17T00:08:13.493Z,17.90
2017-06-17T00:10:41.137Z,18.00
2017-06-17T00:13:13.743Z,18.00
2017-06-17T00:15:42.509Z,18.00
2017-06-17T00:18:09.565Z,18.10
2017-06-17T00:20:38.685Z,18.10
2017-06-17T00:23:06.169Z,18.10
2017-06-17T00:25:33.435Z,18.10
2017-06-17T00:28:03.087Z,18.00
2017-06-17T00:30:30.635Z,18.00
2017-06-17T00:33:01.359Z,18.00
2017-06-17T00:35:29.443Z,18.00
2017-06-17T00:37:56.337Z,18.00
2017-06-17T00:40:25.928Z,18.00
2017-06-17T00:42:53.223Z,17.80
2017-06-17T00:45:21.288Z,17.80
2017-06-17T00:47:49.467Z,17.70
2017-06-17T00:50:17.129Z,17.60
2017-06-17T00:52:45.130Z,17.60
2017-06-17T00:55:12.293Z,17.50
2017-06-17T00:57:38.814Z,17.40
2017-06-17T01:00:06.332Z,17.40
2017-06-17T01:02:35.965Z,17.40
2017-06-17T01:05:02.636Z,17.20
2017-06-17T01:07:31.578Z,17.10
2017-06-17T01:09:59.451Z,17.00
2017-06-17T01:12:28.941Z,17.00
2017-06-17T01:14:57.264Z,16.80
2017-06-17T01:17:24.577Z,16.70
2017-06-17T01:19:52.697Z,16.70
2017-06-17T01:22:22.150Z,16.60
2017-06-17T01:27:22.302Z,16.60
2017-06-17T01:29:50.171Z,16.60
2017-06-17T01:32:23.261Z,16.60
2017-06-17T01:34:49.938Z,16.50
2017-06-17T01:37:18.775Z,16.50
2017-06-17T01:42:16.079Z,16.50
2017-06-17T01:44:43.505Z,16.40
2017-06-17T01:47:11.285Z,16.40
2017-06-17T01:49:40.543Z,16.30
2017-06-17T01:52:11.066Z,16.20
2017-06-17T01:54:38.536Z,16.20
2017-06-17T01:57:07.757Z,16.10
2017-06-17T01:59:34.385Z,16.00
2017-06-17T02:02:04.121Z,15.90
2017-06-17T02:04:31.607Z,15.80
2017-06-17T02:06:59.708Z,15.80
2017-06-17T02:09:29.029Z,15.80
2017-06-17T02:11:58.831Z,15.80
2017-06-17T02:14:27.951Z,15.80
2017-06-17T02:16:57.358Z,15.80
2017-06-17T02:19:25.868Z,15.80
2017-06-17T02:21:55.727Z,15.90
2017-06-17T02:24:23.695Z,16.00
2017-06-17T02:26:54.630Z,16.00
2017-06-17T02:29:22.546Z,16.10
2017-06-17T02:34:22.141Z,16.10
2017-06-17T02:36:48.521Z,16.20
2017-06-17T02:39:15.110Z,16.20
2017-06-17T02:41:47.487Z,16.20
2017-06-17T02:44:18.016Z,16.10
2017-06-17T02:46:45.455Z,16.10
2017-06-17T02:49:14.899Z,16.00
2017-06-17T02:51:44.869Z,15.80
2017-06-17T02:54:12.783Z,15.70
2017-06-17T02:56:41.589Z,15.70
2017-06-17T02:59:08.836Z,15.60
2017-06-17T03:01:36.882Z,15.60
2017-06-17T03:04:04.881Z,15.60
2017-06-17T03:06:32.781Z,15.60
2017-06-17T03:09:01.266Z,15.70
2017-06-17T03:14:03.182Z,15.50
2017-06-17T03:16:31.283Z,15.60
2017-06-17T03:24:18.930Z,15.70
2017-06-17T03:29:19.985Z,15.90
2017-06-17T03:31:47.281Z,16.10
2017-06-17T03:34:19.552Z,16.20
2017-06-17T03:36:48.276Z,16.20
2017-06-17T03:39:17.635Z,16.30
2017-06-17T03:41:48.038Z,16.40
2017-06-17T03:44:15.801Z,16.50
2017-06-17T03:46:45.731Z,16.50
2017-06-17T03:51:47.403Z,16.50
2017-06-17T03:54:15.569Z,16.50
2017-06-17T03:56:43.897Z,16.60
2017-06-17T03:59:13.922Z,16.50
2017-06-17T04:01:43.038Z,16.50
2017-06-17T04:04:10.280Z,16.50
2017-06-17T04:06:43.272Z,16.50
2017-06-17T04:09:10.539Z,16.40
2017-06-17T04:11:43.459Z,16.30
2017-06-17T04:14:14.206Z,16.20
2017-06-17T04:16:43.491Z,16.20
2017-06-17T04:19:11.516Z,16.30
2017-06-17T04:21:38.897Z,16.30
2017-06-17T04:24:06.690Z,16.30
2017-06-17T04:26:35.112Z,16.40
2017-06-17T04:29:01.455Z,16.50
2017-06-17T04:31:33.042Z,16.60
2017-06-17T04:33:59.586Z,16.70
2017-06-17T04:36:31.033Z,16.80
2017-06-17T04:38:57.907Z,16.80
2017-06-17T04:41:24.846Z,16.80
2017-06-17T04:43:53.317Z,16.90
2017-06-17T04:46:19.864Z,17.00
2017-06-17T04:48:49.837Z,17.10
2017-06-17T04:51:22.362Z,17.10
2017-06-17T04:53:55.823Z,17.10
2017-06-17T04:56:27.917Z,17.20
2017-06-17T04:58:55.264Z,17.30
2017-06-17T05:01:21.536Z,17.30
2017-06-17T05:03:47.918Z,17.30
2017-06-17T05:06:20.783Z,17.40
2017-06-17T05:08:49.403Z,17.60
2017-06-17T05:11:17.404Z,17.60
2017-06-17T05:13:45.613Z,17.50
2017-06-17T05:16:15.825Z,17.60
2017-06-17T05:18:47.569Z,17.60
2017-06-17T05:21:15.414Z,17.60
2017-06-17T05:23:43.374Z,17.70
2017-06-17T05:26:10.765Z,17.80
2017-06-17T05:28:38.281Z,17.80
2017-06-17T05:31:07.056Z,17.80
2017-06-17T05:33:35.244Z,17.80
2017-06-17T05:36:03.610Z,17.90
2017-06-17T05:38:32.190Z,17.90
2017-06-17T05:41:01.400Z,18.00
2017-06-17T05:43:29.833Z,18.10
2017-06-17T05:46:00.710Z,18.20
2017-06-17T05:48:28.813Z,18.10
2017-06-17T05:50:57.361Z,18.20
2017-06-17T05:53:25.393Z,18.20
2017-06-17T05:55:53.267Z,18.20
2017-06-17T05:58:20.417Z,18.20
2017-06-17T06:00:48.682Z,18.30
2017-06-17T06:03:17.063Z,18.30
2017-06-17T06:05:44.521Z,18.40
2017-06-17T06:08:12.229Z,18.40
2017-06-17T06:10:40.116Z,18.40
2017-06-17T06:13:08.110Z,18.30
2017-06-17T06:15:36.911Z,18.30
2017-06-17T06:18:06.866Z,18.30
2017-06-17T06:20:35.187Z,18.20
2017-06-17T06:23:01.446Z,18.20
2017-06-17T06:25:29.629Z,18.20
2017-06-17T06:27:56.558Z,18.30
2017-06-17T06:30:23.835Z,18.40
2017-06-17T06:32:57.708Z,18.60
2017-06-17T06:35:25.939Z,18.70
2017-06-17T06:37:56.339Z,18.90
2017-06-17T06:40:24.558Z,18.90
2017-06-17T06:42:52.250Z,19.00
2017-06-17T06:45:20.217Z,19.00
2017-06-17T06:47:48.474Z,19.10
2017-06-17T06:50:17.932Z,19.30
2017-06-17T06:52:47.650Z,19.40
2017-06-17T06:55:17.336Z,19.40
2017-06-17T06:57:53.957Z,19.40
2017-06-17T07:00:21.071Z,19.50
2017-06-17T07:02:48.554Z,19.40
2017-06-17T07:05:17.840Z,19.50
2017-06-17T07:07:48.002Z,19.40
2017-06-17T07:10:15.698Z,19.50
2017-06-17T07:12:45.803Z,19.70
2017-06-17T07:15:13.122Z,19.70
2017-06-17T07:17:41.050Z,19.70
2017-06-17T07:20:09.019Z,19.80
2017-06-17T07:27:55.414Z,19.60
2017-06-17T07:30:26.944Z,19.50
2017-06-17T07:43:56.035Z,20.30
2017-06-17T07:46:25.346Z,20.10
2017-06-17T07:48:54.446Z,19.90
2017-06-17T07:51:22.521Z,19.90
2017-06-17T07:53:48.833Z,20.10
2017-06-17T07:56:16.473Z,20.30
2017-06-17T07:58:43.621Z,20.50
2017-06-17T08:01:12.155Z,20.60
2017-06-17T08:03:38.746Z,20.50
2017-06-17T08:06:07.484Z,20.40
2017-06-17T08:08:34.083Z,20.10
2017-06-17T08:11:01.248Z,20.00
2017-06-17T08:13:29.530Z,20.20
2017-06-17T08:15:55.806Z,20.50
2017-06-17T08:18:24.098Z,20.80
2017-06-17T08:20:52.017Z,20.80
2017-06-17T08:23:21.008Z,20.60
2017-06-17T08:25:49.533Z,20.40
2017-06-17T08:28:17.086Z,20.40
2017-06-17T08:30:44.390Z,20.40
2017-06-17T08:33:13.168Z,20.50
2017-06-17T08:35:41.730Z,20.50
2017-06-17T08:38:12.093Z,20.60
2017-06-17T08:40:42.513Z,20.70
2017-06-17T08:43:11.114Z,20.90
2017-06-17T08:45:39.201Z,21.10
2017-06-17T08:48:07.662Z,21.20
2017-06-17T08:50:36.322Z,21.00
2017-06-17T08:53:06.760Z,20.80
2017-06-17T08:55:34.875Z,20.80
2017-06-17T08:58:01.173Z,21.00
2017-06-17T09:00:29.337Z,21.20
2017-06-17T09:02:58.466Z,21.20
2017-06-17T09:05:29.234Z,21.10
2017-06-17T09:07:56.296Z,21.10
2017-06-17T09:12:59.265Z,21.40
2017-06-17T09:15:32.189Z,21.50
2017-06-17T09:17:59.580Z,21.70
2017-06-17T09:20:27.223Z,21.70
2017-06-17T09:22:54.551Z,21.70
2017-06-17T09:25:21.581Z,21.80
2017-06-17T09:27:50.839Z,21.70
2017-06-17T09:30:18.112Z,21.60
2017-06-17T09:32:46.283Z,21.40
2017-06-17T09:35:14.254Z,21.40
2017-06-17T09:37:42.710Z,21.50
2017-06-17T09:40:12.398Z,21.70
2017-06-17T09:42:47.041Z,22.00
2017-06-17T09:45:14.775Z,21.80
2017-06-17T09:47:43.798Z,21.90
2017-06-17T09:50:15.705Z,21.90
2017-06-17T09:52:42.993Z,22.00
2017-06-17T09:55:10.626Z,22.10
2017-06-17T09:57:38.223Z,22.30
2017-06-17T10:00:06.409Z,22.30
2017-06-17T10:02:33.427Z,22.40
2017-06-17T10:05:00.346Z,22.50
2017-06-17T10:07:30.754Z,22.60
2017-06-17T10:09:57.862Z,22.80
2017-06-17T10:12:26.935Z,22.70
2017-06-17T10:14:54.542Z,22.80
2017-06-17T10:17:23.577Z,22.90
2017-06-17T10:19:52.363Z,23.20
2017-06-17T10:22:19.538Z,23.50
2017-06-17T10:24:45.826Z,23.50
2017-06-17T10:27:12.115Z,23.70
2017-06-17T10:29:39.701Z,23.50
2017-06-17T10:32:09.601Z,23.30
2017-06-17T10:34:39.574Z,23.40
2017-06-17T10:37:06.809Z,23.40
2017-06-17T10:39:34.742Z,23.50
2017-06-17T10:42:03.825Z,23.30
2017-06-17T10:44:31.356Z,23.30
2017-06-17T10:47:01.017Z,23.20
2017-06-17T10:49:30.507Z,23.20
2017-06-17T10:51:57.735Z,23.30
2017-06-17T10:54:26.285Z,23.50
2017-06-17T10:56:54.481Z,23.90
2017-06-17T10:59:20.825Z,23.80
2017-06-17T11:01:51.189Z,24.00
2017-06-17T11:04:18.135Z,24.20
2017-06-17T11:06:46.820Z,24.50
2017-06-17T11:09:13.922Z,24.70
2017-06-17T11:11:44.145Z,25.10
2017-06-17T11:14:11.814Z,25.40
2017-06-17T11:16:39.044Z,25.50
2017-06-17T11:19:05.400Z,25.50
2017-06-17T11:21:37.638Z,25.60
2017-06-17T11:24:04.404Z,25.40
2017-06-17T11:26:32.314Z,25.20
2017-06-17T11:28:59.882Z,25.20
2017-06-17T11:31:27.106Z,25.30
2017-06-17T11:33:55.098Z,25.50
2017-06-17T11:36:25.783Z,25.70
2017-06-17T11:38:52.097Z,25.70
2017-06-17T11:41:22.811Z,26.00
2017-06-17T11:43:50.388Z,26.40
2017-06-17T11:46:20.383Z,26.40
2017-06-17T11:48:50.172Z,26.30
2017-06-17T11:51:17.346Z,26.30
2017-06-17T11:53:46.934Z,26.60
2017-06-17T11:56:15.184Z,26.70
2017-06-17T11:58:43.267Z,26.80
2017-06-17T12:01:11.123Z,26.60
2017-06-17T12:03:40.220Z,26.40
2017-06-17T12:06:07.169Z,26.40
2017-06-17T12:08:36.187Z,26.40
2017-06-17T12:11:03.831Z,26.50
2017-06-17T12:13:33.015Z,27.00
2017-06-17T12:16:03.205Z,27.40
2017-06-17T12:18:30.539Z,27.50
2017-06-17T12:20:58.698Z,27.10
2017-06-17T12:23:26.806Z,26.80
2017-06-17T12:25:57.138Z,27.10
2017-06-17T12:28:27.001Z,27.60
2017-06-17T12:30:57.660Z,27.90
2017-06-17T12:33:24.778Z,28.50
2017-06-17T12:35:52.491Z,29.10
2017-06-17T12:38:19.094Z,29.30
2017-06-17T12:40:46.078Z,29.60
2017-06-17T12:45:58.558Z,30.90
2017-06-17T12:48:25.943Z,31.20
2017-06-17T12:50:53.079Z,31.60
2017-06-17T12:53:20.161Z,32.30
2017-06-17T12:55:47.381Z,33.00
2017-06-17T12:58:15.960Z,33.20
2017-06-17T13:00:43.178Z,33.60
2017-06-17T13:03:14.293Z,33.80
2017-06-17T13:05:43.978Z,34.00
2017-06-17T13:08:10.279Z,34.20
2017-06-17T13:10:38.617Z,34.70
2017-06-17T13:13:07.648Z,34.70
2017-06-17T13:15:36.358Z,34.70
2017-06-17T13:18:04.323Z,35.10
2017-06-17T13:20:33.673Z,35.10
2017-06-17T13:23:00.920Z,35.50
2017-06-17T13:25:31.176Z,36.00
2017-06-17T13:27:58.774Z,36.30
2017-06-17T13:30:26.323Z,36.30
2017-06-17T13:32:53.918Z,36.40
2017-06-17T13:35:24.869Z,36.20
2017-06-17T13:37:51.418Z,36.30
2017-06-17T13:40:18.850Z,36.90
2017-06-17T13:42:45.925Z,37.20
2017-06-17T13:45:12.181Z,37.80
2017-06-17T13:47:38.552Z,38.20
2017-06-17T13:50:06.526Z,38.50
2017-06-17T13:52:34.418Z,38.80
2017-06-17T13:55:00.771Z,39.30
2017-06-17T13:57:27.443Z,39.00
2017-06-17T13:59:55.707Z,39.20
2017-06-17T14:02:23.729Z,39.20
2017-06-17T14:04:54.610Z,39.00
2017-06-17T14:07:21.426Z,38.90
2017-06-17T14:09:54.983Z,39.20
2017-06-17T14:12:22.237Z,39.60
2017-06-17T14:14:48.567Z,39.90
2017-06-17T14:17:19.345Z,40.20
2017-06-17T14:19:48.465Z,40.10
2017-06-17T14:22:24.349Z,40.50
2017-06-17T14:24:51.384Z,40.60
2017-06-17T14:27:18.565Z,40.90
2017-06-17T14:29:45.157Z,41.20
2017-06-17T14:32:16.106Z,41.70
2017-06-17T14:34:44.610Z,41.70
2017-06-17T14:37:17.502Z,41.80
2017-06-17T14:39:44.569Z,41.70
2017-06-17T14:42:14.210Z,41.60
2017-06-17T14:44:42.149Z,41.40
2017-06-17T14:47:09.271Z,40.80
2017-06-17T14:49:37.422Z,40.50
2017-06-17T14:52:03.723Z,41.00
2017-06-17T14:54:30.952Z,41.40
2017-06-17T14:56:57.231Z,41.70
2017-06-17T14:59:23.537Z,41.80
2017-06-17T15:01:50.739Z,42.00
2017-06-17T15:04:17.977Z,42.40
2017-06-17T15:06:46.672Z,41.40
2017-06-17T15:09:12.946Z,41.10
2017-06-17T15:11:39.261Z,41.50
2017-06-17T15:14:08.634Z,41.80
2017-06-17T15:16:37.798Z,41.80
2017-06-17T15:19:06.215Z,41.30
2017-06-17T15:21:34.663Z,39.50
2017-06-17T15:24:00.966Z,37.40
2017-06-17T15:26:27.598Z,36.40
2017-06-17T15:28:54.924Z,37.50
2017-06-17T15:31:25.639Z,38.20
2017-06-17T15:33:54.225Z,37.50
2017-06-17T15:36:21.903Z,36.00
2017-06-17T15:38:50.219Z,36.80
2017-06-17T15:41:16.534Z,38.30
2017-06-17T15:43:43.798Z,38.90
2017-06-17T15:46:10.848Z,39.50
2017-06-17T15:48:37.178Z,40.10
2017-06-17T15:51:03.511Z,39.50
2017-06-17T15:53:30.598Z,40.00
2017-06-17T15:55:57.430Z,39.30
2017-06-17T15:58:23.757Z,37.20
2017-06-17T16:00:50.955Z,34.90
2017-06-17T16:05:54.188Z,35.40
2017-06-17T16:08:22.630Z,36.80
2017-06-17T16:10:52.196Z,36.80
2017-06-17T16:13:21.294Z,34.90
2017-06-17T16:15:48.223Z,33.10
2017-06-17T16:18:16.466Z,30.20
2017-06-17T16:20:44.298Z,30.20
2017-06-17T16:23:14.042Z,29.20
2017-06-17T16:25:46.968Z,28.50
2017-06-17T16:28:14.747Z,27.80
2017-06-17T16:30:45.635Z,27.30
2017-06-17T16:33:17.259Z,27.30
2017-06-17T16:35:45.349Z,27.50
2017-06-17T16:38:11.998Z,27.90
2017-06-17T16:40:38.900Z,27.70
2017-06-17T16:43:06.597Z,27.30
2017-06-17T16:45:33.804Z,26.90
2017-06-17T16:48:01.094Z,26.50
2017-06-17T16:50:28.773Z,27.40
2017-06-17T16:52:59.050Z,27.40
2017-06-17T16:55:27.737Z,30.00
2017-06-17T16:57:55.897Z,32.80
2017-06-17T17:00:24.753Z,34.70
2017-06-17T17:02:51.610Z,36.30
2017-06-17T17:05:20.334Z,37.00
2017-06-17T17:07:47.387Z,36.50
2017-06-17T17:10:13.998Z,35.20
2017-06-17T17:12:40.368Z,33.00
2017-06-17T17:15:07.303Z,31.00
2017-06-17T17:17:34.384Z,29.50
2017-06-17T17:20:03.827Z,28.40
2017-06-17T17:22:30.530Z,26.60
2017-06-17T17:24:58.570Z,26.60
2017-06-17T17:27:25.965Z,25.60
2017-06-17T17:29:55.394Z,25.60
2017-06-17T17:32:21.683Z,25.30
2017-06-17T17:34:47.984Z,25.00
2017-06-17T17:37:15.242Z,24.70
2017-06-17T17:39:41.536Z,24.60
2017-06-17T17:42:10.741Z,24.60
2017-06-17T17:44:37.053Z,24.60
2017-06-17T17:47:04.630Z,24.40
2017-06-17T17:49:31.745Z,24.30
2017-06-17T17:51:59.467Z,24.20
2017-06-17T17:54:29.200Z,24.00
2017-06-17T17:56:57.215Z,23.80
2017-06-17T17:59:25.677Z,23.70
2017-06-17T18:01:52.602Z,23.60
2017-06-17T18:04:19.750Z,23.70
2017-06-17T18:06:47.714Z,23.60
2017-06-17T18:09:15.296Z,23.70
2017-06-17T18:11:43.205Z,23.90
2017-06-17T18:14:12.225Z,24.20
2017-06-17T18:16:41.581Z,24.70
2017-06-17T18:19:11.693Z,24.70
2017-06-17T18:21:41.397Z,24.40
2017-06-17T18:24:11.454Z,24.20
2017-06-17T18:26:39.959Z,23.60
2017-06-17T18:29:06.842Z,23.60
2017-06-17T18:31:35.405Z,23.40
2017-06-17T18:34:02.533Z,23.30
2017-06-17T18:36:29.757Z,23.00
2017-06-17T18:39:04.625Z,22.90
2017-06-17T18:41:33.396Z,22.70
2017-06-17T18:44:01.185Z,22.70
2017-06-17T18:46:29.321Z,22.70
2017-06-17T18:48:56.563Z,22.60
2017-06-17T18:51:25.575Z,22.60
2017-06-17T18:53:54.006Z,22.50
2017-06-17T18:56:22.821Z,22.30
2017-06-17T18:58:52.358Z,22.20
2017-06-17T19:01:19.414Z,22.20
2017-06-17T19:03:48.772Z,22.20
2017-06-17T19:06:19.897Z,22.10
2017-06-17T19:08:47.623Z,22.10
2017-06-17T19:11:13.912Z,22.10
2017-06-17T19:13:42.229Z,22.10
2017-06-17T19:16:09.066Z,22.00
2017-06-17T19:18:36.993Z,22.00
2017-06-17T20:00:52.130Z,21.20
2017-06-17T20:03:19.613Z,21.10
2017-06-17T20:05:45.943Z,21.00
2017-06-17T20:08:15.378Z,21.10
2017-06-17T20:10:41.708Z,21.00
2017-06-17T20:13:11.019Z,21.10
2017-06-17T20:15:39.052Z,21.00
2017-06-17T20:18:07.525Z,21.00
2017-06-17T20:20:35.892Z,21.10
2017-06-17T20:23:08.438Z,21.00
2017-06-17T20:25:39.399Z,21.00
2017-06-17T20:28:05.794Z,21.00
2017-06-17T20:30:32.852Z,20.90
2017-06-17T20:32:59.775Z,20.80
2017-06-17T20:35:28.021Z,20.90
2017-06-17T20:37:55.739Z,20.90
2017-06-17T20:40:23.133Z,20.90
2017-06-17T20:42:49.663Z,20.80
2017-06-17T20:45:16.210Z,20.80
2017-06-17T20:47:42.837Z,20.80
2017-06-17T20:50:09.939Z,20.80
2017-06-17T20:52:38.989Z,20.80
2017-06-17T20:55:07.103Z,20.80
2017-06-17T20:57:34.980Z,20.70
2017-06-17T21:00:01.367Z,20.80
2017-06-17T21:02:28.519Z,20.80
2017-06-17T21:04:55.308Z,20.70
2017-06-17T21:07:22.296Z,20.70
2017-06-17T21:09:50.322Z,20.70
2017-06-17T21:12:21.386Z,20.60
2017-06-17T21:14:49.954Z,20.60
2017-06-17T21:17:17.052Z,20.60
2017-06-17T21:19:45.994Z,20.70
2017-06-17T21:22:14.469Z,20.60
2017-06-17T21:24:42.726Z,20.60
2017-06-17T21:27:09.474Z,20.50
2017-06-17T21:29:35.855Z,20.50
2017-06-17T21:32:04.746Z,20.50
2017-06-17T21:34:32.817Z,20.50
2017-06-17T21:37:00.844Z,20.50
2017-06-17T21:39:28.126Z,20.40
2017-06-17T21:41:56.921Z,20.40
2017-06-17T21:44:24.251Z,20.40
2017-06-17T21:46:51.473Z,20.40
2017-06-17T21:49:18.707Z,20.40
2017-06-17T21:51:46.878Z,20.40
2017-06-17T21:54:18.056Z,20.40
2017-06-17T21:56:50.915Z,20.30
2017-06-17T21:59:20.014Z,20.30
2017-06-17T22:01:47.819Z,20.20
2017-06-17T22:04:17.777Z,20.30
2017-06-17T22:06:48.668Z,20.20
2017-06-17T22:09:18.282Z,20.20
2017-06-17T22:11:47.964Z,20.30
2017-06-17T22:14:15.541Z,20.20
2017-06-17T22:16:44.367Z,20.20
2017-06-17T22:19:13.236Z,20.20
2017-06-17T22:21:40.467Z,20.20
2017-06-17T22:24:08.657Z,20.20
2017-06-17T22:26:35.580Z,20.10
2017-06-17T22:29:04.164Z,20.20
2017-06-17T22:31:31.867Z,20.20
2017-06-17T22:34:02.212Z,20.20
2017-06-17T22:36:29.934Z,20.10
2017-06-17T22:38:58.077Z,20.20
2017-06-17T22:41:26.531Z,20.10
2017-06-17T22:43:53.532Z,20.10
2017-06-17T22:46:21.435Z,20.10
2017-06-17T22:48:49.318Z,20.10
2017-06-17T22:51:19.017Z,20.10
2017-06-17T22:53:46.241Z,20.00
2017-06-17T22:56:15.897Z,20.00
2017-06-17T22:58:44.880Z,20.00
2017-06-17T23:01:14.706Z,20.00
2017-06-17T23:03:42.935Z,20.10
2017-06-17T23:06:09.871Z,20.00
2017-06-17T23:08:43.086Z,20.00
2017-06-17T23:11:10.517Z,20.00
2017-06-17T23:13:39.640Z,19.90
2017-06-17T23:16:07.489Z,19.80
2017-06-17T23:18:35.818Z,19.90
2017-06-17T23:21:07.898Z,19.90
2017-06-17T23:26:08.166Z,19.80
2017-06-17T23:28:36.388Z,19.80
2017-06-17T23:31:04.305Z,19.80
2017-06-17T23:33:35.386Z,19.70
2017-06-17T23:36:07.266Z,19.70
2017-06-17T23:38:35.868Z,19.70
2017-06-17T23:41:04.557Z,19.70
2017-06-17T23:43:31.025Z,19.70
2017-06-17T23:45:59.631Z,19.60
2017-06-17T23:48:30.081Z,19.60
2017-06-17T23:50:56.487Z,19.60
2017-06-17T23:53:25.369Z,19.60
2017-06-17T23:55:54.226Z,19.60
2017-06-17T23:58:22.477Z,19.60
